sensor_id;sensor_type;location;lat;lon;timestamp;pressure;altitude;pressure_sealevel;temperature;humidity
66543;BME280;53395;37.360;-122.046;2022-12-01T00:02:15;100813.84;;;13.37;54.69
66543;BME280;53395;37.360;-122.046;2022-12-01T00:04:41;100820.19;;;13.28;55.20
66543;BME280;53395;37.360;-122.046;2022-12-01T00:07:07;100813.13;;;13.30;54.73
66543;BME280;53395;37.360;-122.046;2022-12-01T00:09:33;100815.47;;;13.10;55.20
66543;BME280;53395;37.360;-122.046;2022-12-01T00:12:18;100824.25;;;13.70;52.84
66543;BME280;53395;37.360;-122.046;2022-12-01T00:14:44;100830.41;;;13.39;53.35
66543;BME280;53395;37.360;-122.046;2022-12-01T00:17:20;100824.56;;;12.62;53.17
66543;BME280;53395;37.360;-122.046;2022-12-01T00:19:46;100837.34;;;12.04;53.73
66543;BME280;53395;37.360;-122.046;2022-12-01T00:22:12;100831.13;;;12.09;53.88
66543;BME280;53395;37.360;-122.046;2022-12-01T00:24:39;100830.56;;;11.96;53.66
66543;BME280;53395;37.360;-122.046;2022-12-01T00:27:05;100827.47;;;11.77;54.65
66543;BME280;53395;37.360;-122.046;2022-12-01T00:29:31;100834.38;;;11.79;55.06
66543;BME280;53395;37.360;-122.046;2022-12-01T00:31:57;100840.84;;;11.64;54.74
66543;BME280;53395;37.360;-122.046;2022-12-01T00:34:24;100841.66;;;11.67;54.10
66543;BME280;53395;37.360;-122.046;2022-12-01T00:36:50;100840.00;;;11.62;54.19
66543;BME280;53395;37.360;-122.046;2022-12-01T00:39:17;100847.94;;;11.58;53.65
66543;BME280;53395;37.360;-122.046;2022-12-01T00:41:43;100849.09;;;11.45;55.06
66543;BME280;53395;37.360;-122.046;2022-12-01T00:44:09;100844.78;;;11.40;54.76
66543;BME280;53395;37.360;-122.046;2022-12-01T00:46:35;100851.44;;;11.13;55.32
66543;BME280;53395;37.360;-122.046;2022-12-01T00:49:02;100852.78;;;10.88;56.35
66543;BME280;53395;37.360;-122.046;2022-12-01T00:51:28;100850.19;;;10.88;56.31
66543;BME280;53395;37.360;-122.046;2022-12-01T00:53:55;100846.97;;;10.72;56.92
66543;BME280;53395;37.360;-122.046;2022-12-01T00:56:21;100849.66;;;10.69;57.08
66543;BME280;53395;37.360;-122.046;2022-12-01T00:58:47;100854.03;;;10.65;57.28
66543;BME280;53395;37.360;-122.046;2022-12-01T01:01:13;100847.97;;;10.65;58.88
66543;BME280;53395;37.360;-122.046;2022-12-01T01:03:39;100847.41;;;10.47;57.86
66543;BME280;53395;37.360;-122.046;2022-12-01T01:06:08;100846.75;;;10.33;58.77
66543;BME280;53395;37.360;-122.046;2022-12-01T01:08:36;100840.63;;;10.34;58.98
66543;BME280;53395;37.360;-122.046;2022-12-01T01:11:03;100845.91;;;10.32;59.36
66543;BME280;53395;37.360;-122.046;2022-12-01T01:13:30;100833.13;;;10.11;60.58
66543;BME280;53395;37.360;-122.046;2022-12-01T01:16:05;100836.69;;;10.07;61.14
66543;BME280;53395;37.360;-122.046;2022-12-01T01:18:32;100838.81;;;9.79;62.47
66543;BME280;53395;37.360;-122.046;2022-12-01T01:21:05;100830.16;;;9.75;63.08
66543;BME280;53395;37.360;-122.046;2022-12-01T01:23:31;100831.47;;;9.43;64.53
66543;BME280;53395;37.360;-122.046;2022-12-01T01:26:06;100825.56;;;9.26;65.14
66543;BME280;53395;37.360;-122.046;2022-12-01T01:28:33;100839.69;;;9.05;66.31
66543;BME280;53395;37.360;-122.046;2022-12-01T01:31:03;100839.06;;;8.81;67.53
66543;BME280;53395;37.360;-122.046;2022-12-01T01:33:29;100830.03;;;9.18;66.64
66543;BME280;53395;37.360;-122.046;2022-12-01T01:35:58;100840.78;;;8.87;67.76
66543;BME280;53395;37.360;-122.046;2022-12-01T01:38:27;100839.28;;;8.58;69.09
66543;BME280;53395;37.360;-122.046;2022-12-01T01:40:54;100850.75;;;8.36;70.44
66543;BME280;53395;37.360;-122.046;2022-12-01T01:43:49;100851.59;;;8.36;71.68
66543;BME280;53395;37.360;-122.046;2022-12-01T01:46:22;100856.09;;;8.13;73.75
66543;BME280;53395;37.360;-122.046;2022-12-01T01:49:04;100858.00;;;7.89;74.26
66543;BME280;53395;37.360;-122.046;2022-12-01T01:51:43;100854.50;;;7.93;75.27
66543;BME280;53395;37.360;-122.046;2022-12-01T01:54:14;100850.28;;;7.72;75.21
66543;BME280;53395;37.360;-122.046;2022-12-01T01:56:43;100843.41;;;7.59;75.92
66543;BME280;53395;37.360;-122.046;2022-12-01T01:59:15;100849.47;;;7.59;76.53
66543;BME280;53395;37.360;-122.046;2022-12-01T02:01:44;100847.78;;;7.45;76.91
66543;BME280;53395;37.360;-122.046;2022-12-01T02:04:15;100851.25;;;7.47;76.86
66543;BME280;53395;37.360;-122.046;2022-12-01T02:06:41;100840.06;;;7.29;78.53
66543;BME280;53395;37.360;-122.046;2022-12-01T02:09:10;100853.97;;;7.13;79.91
66543;BME280;53395;37.360;-122.046;2022-12-01T02:12:15;100846.16;;;7.16;80.86
66543;BME280;53395;37.360;-122.046;2022-12-01T02:15:05;100853.97;;;7.13;80.94
66543;BME280;53395;37.360;-122.046;2022-12-01T02:17:37;100848.81;;;6.99;81.72
66543;BME280;53395;37.360;-122.046;2022-12-01T02:34:56;100880.03;;;6.68;84.92
66543;BME280;53395;37.360;-122.046;2022-12-01T02:45:21;100886.94;;;6.39;87.61
66543;BME280;53395;37.360;-122.046;2022-12-01T02:47:52;100888.69;;;6.35;89.50
66543;BME280;53395;37.360;-122.046;2022-12-01T02:50:21;100884.34;;;6.34;91.42
66543;BME280;53395;37.360;-122.046;2022-12-01T02:52:49;100874.81;;;6.22;90.56
66543;BME280;53395;37.360;-122.046;2022-12-01T02:55:15;100884.34;;;6.19;91.11
66543;BME280;53395;37.360;-122.046;2022-12-01T02:57:41;100877.38;;;6.08;92.15
66543;BME280;53395;37.360;-122.046;2022-12-01T03:00:08;100882.56;;;6.10;91.16
66543;BME280;53395;37.360;-122.046;2022-12-01T03:05:37;100882.50;;;5.88;91.77
66543;BME280;53395;37.360;-122.046;2022-12-01T03:10:55;100882.47;;;5.79;92.30
66543;BME280;53395;37.360;-122.046;2022-12-01T03:26:33;100897.03;;;5.53;94.86
66543;BME280;53395;37.360;-122.046;2022-12-01T03:29:14;100899.59;;;5.45;95.11
66543;BME280;53395;37.360;-122.046;2022-12-01T03:31:44;100902.22;;;5.53;96.29
66543;BME280;53395;37.360;-122.046;2022-12-01T03:34:42;100897.91;;;5.55;95.80
66543;BME280;53395;37.360;-122.046;2022-12-01T03:37:15;100896.19;;;5.50;95.21
66543;BME280;53395;37.360;-122.046;2022-12-01T03:39:44;100891.75;;;5.33;94.75
66543;BME280;53395;37.360;-122.046;2022-12-01T03:42:54;100899.50;;;5.25;95.93
66543;BME280;53395;37.360;-122.046;2022-12-01T03:45:44;100901.25;;;5.27;96.85
66543;BME280;53395;37.360;-122.046;2022-12-01T03:48:12;100904.72;;;5.33;95.59
66543;BME280;53395;37.360;-122.046;2022-12-01T03:53:33;100891.78;;;5.40;96.70
66543;BME280;53395;37.360;-122.046;2022-12-01T03:56:05;100896.97;;;5.34;95.71
66543;BME280;53395;37.360;-122.046;2022-12-01T03:58:39;100902.13;;;5.36;96.51
66543;BME280;53395;37.360;-122.046;2022-12-01T04:01:08;100889.47;;;7.17;100.00
66543;BME280;53395;37.360;-122.046;2022-12-01T04:03:35;100882.63;;;6.48;93.40
66543;BME280;53395;37.360;-122.046;2022-12-01T04:06:01;100881.50;;;7.74;93.06
66543;BME280;53395;37.360;-122.046;2022-12-01T04:08:27;100871.94;;;7.73;88.46
66543;BME280;53395;37.360;-122.046;2022-12-01T04:10:55;100883.78;;;8.29;88.19
66543;BME280;53395;37.360;-122.046;2022-12-01T04:13:22;100872.75;;;9.03;80.78
66543;BME280;53395;37.360;-122.046;2022-12-01T04:15:49;100867.66;;;8.91;76.39
66543;BME280;53395;37.360;-122.046;2022-12-01T04:18:16;100865.06;;;9.69;75.14
66543;BME280;53395;37.360;-122.046;2022-12-01T04:20:43;100879.69;;;10.43;71.65
66543;BME280;53395;37.360;-122.046;2022-12-01T04:23:10;100872.28;;;10.14;72.79
66543;BME280;53395;37.360;-122.046;2022-12-01T04:26:03;100877.72;;;10.57;70.73
66543;BME280;53395;37.360;-122.046;2022-12-01T04:28:29;100891.03;;;9.79;72.83
66543;BME280;53395;37.360;-122.046;2022-12-01T04:30:56;100881.41;;;9.06;73.19
66543;BME280;53395;37.360;-122.046;2022-12-01T04:33:22;100886.81;;;8.89;75.18
66543;BME280;53395;37.360;-122.046;2022-12-01T04:35:58;100886.81;;;8.86;75.13
66543;BME280;53395;37.360;-122.046;2022-12-01T04:38:25;100886.88;;;8.79;75.13
66543;BME280;53395;37.360;-122.046;2022-12-01T04:40:51;100893.63;;;9.01;75.37
66543;BME280;53395;37.360;-122.046;2022-12-01T04:43:18;100902.84;;;8.37;76.95
66543;BME280;53395;37.360;-122.046;2022-12-01T04:45:44;100914.41;;;7.82;81.15
66543;BME280;53395;37.360;-122.046;2022-12-01T04:48:10;100910.97;;;7.79;81.63
66543;BME280;53395;37.360;-122.046;2022-12-01T04:50:37;100911.97;;;7.39;82.53
66543;BME280;53395;37.360;-122.046;2022-12-01T04:53:03;100909.38;;;7.41;83.08
66543;BME280;53395;37.360;-122.046;2022-12-01T04:55:29;100916.31;;;7.37;83.48
66543;BME280;53395;37.360;-122.046;2022-12-01T04:57:55;100916.28;;;7.36;83.79
66543;BME280;53395;37.360;-122.046;2022-12-01T05:00:22;100906.78;;;7.33;85.08
66543;BME280;53395;37.360;-122.046;2022-12-01T05:02:49;100906.78;;;7.29;85.49
66543;BME280;53395;37.360;-122.046;2022-12-01T05:05:15;100907.66;;;7.28;86.53
66543;BME280;53395;37.360;-122.046;2022-12-01T05:07:41;100902.47;;;7.28;87.04
66543;BME280;53395;37.360;-122.046;2022-12-01T05:10:08;100896.38;;;7.30;87.36
66543;BME280;53395;37.360;-122.046;2022-12-01T05:12:34;100892.91;;;7.34;88.54
66543;BME280;53395;37.360;-122.046;2022-12-01T05:15:00;100885.94;;;7.47;89.38
66543;BME280;53395;37.360;-122.046;2022-12-01T05:17:30;100883.31;;;7.58;89.87
66543;BME280;53395;37.360;-122.046;2022-12-01T05:19:56;100882.44;;;7.62;90.32
66543;BME280;53395;37.360;-122.046;2022-12-01T05:22:41;100870.28;;;7.55;91.13
66543;BME280;53395;37.360;-122.046;2022-12-01T05:25:07;100869.44;;;7.51;91.01
66543;BME280;53395;37.360;-122.046;2022-12-01T05:27:33;100872.03;;;7.50;92.20
66543;BME280;53395;37.360;-122.046;2022-12-01T05:29:59;100871.03;;;7.83;90.21
66543;BME280;53395;37.360;-122.046;2022-12-01T05:32:26;100870.25;;;7.66;91.15
66543;BME280;53395;37.360;-122.046;2022-12-01T05:34:52;100877.25;;;7.50;92.03
66543;BME280;53395;37.360;-122.046;2022-12-01T05:37:18;100874.66;;;7.53;91.75
66543;BME280;53395;37.360;-122.046;2022-12-01T05:39:44;100873.84;;;7.38;92.60
66543;BME280;53395;37.360;-122.046;2022-12-01T05:42:10;100860.75;;;7.58;92.15
66543;BME280;53395;37.360;-122.046;2022-12-01T05:44:37;100866.63;;;7.94;90.88
66543;BME280;53395;37.360;-122.046;2022-12-01T05:47:03;100860.53;;;7.98;89.96
66543;BME280;53395;37.360;-122.046;2022-12-01T05:49:29;100863.28;;;7.71;91.42
66543;BME280;53395;37.360;-122.046;2022-12-01T05:51:55;100852.72;;;7.97;90.75
66543;BME280;53395;37.360;-122.046;2022-12-01T05:54:21;100865.00;;;7.79;91.33
66543;BME280;53395;37.360;-122.046;2022-12-01T05:56:48;100863.34;;;7.57;93.06
66543;BME280;53395;37.360;-122.046;2022-12-01T05:59:14;100866.69;;;7.82;92.37
66543;BME280;53395;37.360;-122.046;2022-12-01T06:01:40;100862.38;;;7.78;92.92
66543;BME280;53395;37.360;-122.046;2022-12-01T06:04:06;100857.22;;;7.76;94.05
66543;BME280;53395;37.360;-122.046;2022-12-01T06:06:33;100870.19;;;7.79;93.71
66543;BME280;53395;37.360;-122.046;2022-12-01T06:08:59;100864.16;;;7.74;95.71
66543;BME280;53395;37.360;-122.046;2022-12-01T06:11:25;100871.09;;;7.71;96.72
66543;BME280;53395;37.360;-122.046;2022-12-01T06:13:52;100869.31;;;7.76;96.86
66543;BME280;53395;37.360;-122.046;2022-12-01T06:16:18;100870.16;;;7.86;97.43
66543;BME280;53395;37.360;-122.046;2022-12-01T06:18:44;100869.34;;;7.71;98.05
66543;BME280;53395;37.360;-122.046;2022-12-01T06:21:10;100858.00;;;7.83;98.45
66543;BME280;53395;37.360;-122.046;2022-12-01T06:23:36;100858.03;;;7.80;98.94
66543;BME280;53395;37.360;-122.046;2022-12-01T06:26:03;100849.34;;;7.82;98.95
66543;BME280;53395;37.360;-122.046;2022-12-01T06:28:29;100856.31;;;7.76;100.00
66543;BME280;53395;37.360;-122.046;2022-12-01T06:30:56;100841.53;;;7.89;99.79
66543;BME280;53395;37.360;-122.046;2022-12-01T06:33:22;100845.91;;;7.79;100.00
66543;BME280;53395;37.360;-122.046;2022-12-01T06:35:55;100840.66;;;7.87;100.00
66543;BME280;53395;37.360;-122.046;2022-12-01T06:38:21;100834.41;;;8.11;98.89
66543;BME280;53395;37.360;-122.046;2022-12-01T06:40:47;100831.09;;;7.87;100.00
66543;BME280;53395;37.360;-122.046;2022-12-01T06:43:14;100840.66;;;7.88;100.00
66543;BME280;53395;37.360;-122.046;2022-12-01T06:45:40;100835.41;;;7.90;100.00
66543;BME280;53395;37.360;-122.046;2022-12-01T06:48:06;100818.91;;;8.00;100.00
66543;BME280;53395;37.360;-122.046;2022-12-01T06:50:33;100828.47;;;7.93;100.00
66543;BME280;53395;37.360;-122.046;2022-12-01T06:52:59;100832.00;;;7.86;100.00
66543;BME280;53395;37.360;-122.046;2022-12-01T06:55:25;100817.28;;;7.76;100.00
66543;BME280;53395;37.360;-122.046;2022-12-01T06:57:51;100812.97;;;7.73;100.00
66543;BME280;53395;37.360;-122.046;2022-12-01T07:00:18;100819.94;;;7.68;100.00
66543;BME280;53395;37.360;-122.046;2022-12-01T07:02:44;100804.41;;;7.56;100.00
66543;BME280;53395;37.360;-122.046;2022-12-01T07:05:10;100810.47;;;7.56;100.00
66543;BME280;53395;37.360;-122.046;2022-12-01T07:07:38;100808.72;;;7.57;100.00
66543;BME280;53395;37.360;-122.046;2022-12-01T07:10:05;100800.91;;;7.60;100.00
66543;BME280;53395;37.360;-122.046;2022-12-01T07:12:32;100803.47;;;7.66;100.00
66543;BME280;53395;37.360;-122.046;2022-12-01T07:14:58;100789.59;;;7.70;100.00
66543;BME280;53395;37.360;-122.046;2022-12-01T07:17:24;100775.72;;;7.68;100.00
66543;BME280;53395;37.360;-122.046;2022-12-01T07:19:50;100772.25;;;7.66;100.00
66543;BME280;53395;37.360;-122.046;2022-12-01T07:22:17;100767.09;;;7.65;100.00
66543;BME280;53395;37.360;-122.046;2022-12-01T07:24:43;100767.06;;;7.68;100.00
66543;BME280;53395;37.360;-122.046;2022-12-01T07:27:09;100757.47;;;7.74;100.00
66543;BME280;53395;37.360;-122.046;2022-12-01T07:29:35;100765.28;;;7.73;100.00
66543;BME280;53395;37.360;-122.046;2022-12-01T07:32:01;100766.19;;;7.64;100.00
66543;BME280;53395;37.360;-122.046;2022-12-01T07:34:28;100770.50;;;7.70;100.00
66543;BME280;53395;37.360;-122.046;2022-12-01T07:36:54;100774.03;;;7.56;100.00
66543;BME280;53395;37.360;-122.046;2022-12-01T07:39:20;100776.69;;;7.53;100.00
66543;BME280;53395;37.360;-122.046;2022-12-01T07:41:46;100773.19;;;7.57;100.00
66543;BME280;53395;37.360;-122.046;2022-12-01T07:44:12;100774.06;;;7.58;100.00
66543;BME280;53395;37.360;-122.046;2022-12-01T07:46:39;100779.28;;;7.52;100.00
66543;BME280;53395;37.360;-122.046;2022-12-01T07:49:06;100773.13;;;7.70;100.00
66543;BME280;53395;37.360;-122.046;2022-12-01T07:51:35;100774.84;;;7.69;100.00
66543;BME280;53395;37.360;-122.046;2022-12-01T07:54:03;100764.47;;;7.65;100.00
66543;BME280;53395;37.360;-122.046;2022-12-01T07:56:30;100759.22;;;7.72;100.00
66543;BME280;53395;37.360;-122.046;2022-12-01T07:58:56;100758.31;;;7.78;100.00
66543;BME280;53395;37.360;-122.046;2022-12-01T08:01:22;100754.94;;;7.67;100.00
66543;BME280;53395;37.360;-122.046;2022-12-01T08:03:52;100738.50;;;7.57;100.00
66543;BME280;53395;37.360;-122.046;2022-12-01T08:06:19;100743.69;;;7.57;100.00
66543;BME280;53395;37.360;-122.046;2022-12-01T08:08:46;100749.75;;;7.62;100.00
66543;BME280;53395;37.360;-122.046;2022-12-01T08:11:18;100748.88;;;7.65;100.00
66543;BME280;53395;37.360;-122.046;2022-12-01T08:13:45;100733.25;;;7.63;100.00
66543;BME280;53395;37.360;-122.046;2022-12-01T08:16:13;100753.16;;;7.72;100.00
66543;BME280;53395;37.360;-122.046;2022-12-01T08:18:41;100747.06;;;7.73;100.00
66543;BME280;53395;37.360;-122.046;2022-12-01T08:21:10;100738.38;;;7.78;100.00
66543;BME280;53395;37.360;-122.046;2022-12-01T08:23:37;100744.41;;;7.82;100.00
66543;BME280;53395;37.360;-122.046;2022-12-01T08:26:10;100747.00;;;7.83;100.00
66543;BME280;53395;37.360;-122.046;2022-12-01T08:28:38;100743.50;;;7.86;100.00
66543;BME280;53395;37.360;-122.046;2022-12-01T08:33:41;100726.94;;;7.98;100.00
66543;BME280;53395;37.360;-122.046;2022-12-01T08:36:07;100724.34;;;7.98;100.00
66543;BME280;53395;37.360;-122.046;2022-12-01T08:38:34;100720.00;;;8.00;100.00
66543;BME280;53395;37.360;-122.046;2022-12-01T08:41:05;100712.13;;;8.04;100.00
66543;BME280;53395;37.360;-122.046;2022-12-01T08:43:32;100715.59;;;8.05;100.00
66543;BME280;53395;37.360;-122.046;2022-12-01T08:45:59;100710.34;;;8.10;100.00
66543;BME280;53395;37.360;-122.046;2022-12-01T08:48:26;100720.72;;;8.13;100.00
66543;BME280;53395;37.360;-122.046;2022-12-01T08:53:31;100715.44;;;8.23;100.00
66543;BME280;53395;37.360;-122.046;2022-12-01T08:58:57;100698.06;;;8.22;100.00
66543;BME280;53395;37.360;-122.046;2022-12-01T09:01:24;100690.25;;;8.22;100.00
66543;BME280;53395;37.360;-122.046;2022-12-01T09:03:51;100704.09;;;8.31;100.00
66543;BME280;53395;37.360;-122.046;2022-12-01T09:06:31;100705.88;;;8.25;100.00
66543;BME280;53395;37.360;-122.046;2022-12-01T09:09:01;100707.59;;;8.26;100.00
66543;BME280;53395;37.360;-122.046;2022-12-01T09:11:27;100705.75;;;8.38;100.00
66543;BME280;53395;37.360;-122.046;2022-12-01T09:13:53;100696.28;;;8.31;100.00
66543;BME280;53395;37.360;-122.046;2022-12-01T09:16:19;100699.69;;;8.34;100.00
66543;BME280;53395;37.360;-122.046;2022-12-01T09:18:47;100683.25;;;8.27;100.00
66543;BME280;53395;37.360;-122.046;2022-12-01T09:21:25;100671.91;;;8.35;100.00
66543;BME280;53395;37.360;-122.046;2022-12-01T09:23:51;100678.84;;;8.34;100.00
66543;BME280;53395;37.360;-122.046;2022-12-01T09:26:18;100680.66;;;8.31;100.00
66543;BME280;53395;37.360;-122.046;2022-12-01T09:28:45;100684.97;;;8.32;100.00
66543;BME280;53395;37.360;-122.046;2022-12-01T09:31:12;100678.84;;;8.37;100.00
66543;BME280;53395;37.360;-122.046;2022-12-01T09:33:39;100682.19;;;8.50;100.00
66543;BME280;53395;37.360;-122.046;2022-12-01T09:36:07;100687.97;;;8.77;100.00
66543;BME280;53395;37.360;-122.046;2022-12-01T09:38:34;100691.41;;;8.80;100.00
66543;BME280;53395;37.360;-122.046;2022-12-01T09:41:05;100693.16;;;8.80;100.00
66543;BME280;53395;37.360;-122.046;2022-12-01T09:43:42;100699.94;;;8.95;100.00
66543;BME280;53395;37.360;-122.046;2022-12-01T09:46:20;100695.34;;;9.12;100.00
66543;BME280;53395;37.360;-122.046;2022-12-01T09:48:48;100697.19;;;9.05;100.00
66543;BME280;53395;37.360;-122.046;2022-12-01T09:51:18;100694.41;;;9.18;100.00
66543;BME280;53395;37.360;-122.046;2022-12-01T09:53:48;100690.97;;;9.16;100.00
66543;BME280;53395;37.360;-122.046;2022-12-01T09:56:26;100694.50;;;9.10;100.00
66543;BME280;53395;37.360;-122.046;2022-12-01T09:59:01;100687.69;;;9.01;100.00
66543;BME280;53395;37.360;-122.046;2022-12-01T10:01:34;100706.84;;;8.99;100.00
66543;BME280;53395;37.360;-122.046;2022-12-01T10:04:10;100693.69;;;9.05;100.00
66543;BME280;53395;37.360;-122.046;2022-12-01T10:06:42;100693.69;;;9.08;100.00
66543;BME280;53395;37.360;-122.046;2022-12-01T10:12:13;100686.56;;;9.19;100.00
66543;BME280;53395;37.360;-122.046;2022-12-01T10:14:41;100683.03;;;9.22;100.00
66543;BME280;53395;37.360;-122.046;2022-12-01T10:20:47;100675.31;;;9.16;100.00
66543;BME280;53395;37.360;-122.046;2022-12-01T10:22:57;100676.94;;;9.24;100.00
66543;BME280;53395;37.360;-122.046;2022-12-01T10:25:28;100667.31;;;9.26;100.00
66543;BME280;53395;37.360;-122.046;2022-12-01T10:30:28;100645.53;;;9.30;100.00
66543;BME280;53395;37.360;-122.046;2022-12-01T10:33:00;100646.38;;;9.34;99.94
66543;BME280;53395;37.360;-122.046;2022-12-01T10:35:32;100642.06;;;9.30;99.92
66543;BME280;53395;37.360;-122.046;2022-12-01T10:38:04;100635.22;;;9.24;99.46
66543;BME280;53395;37.360;-122.046;2022-12-01T10:40:32;100638.81;;;9.17;99.42
66543;BME280;53395;37.360;-122.046;2022-12-01T10:43:01;100635.34;;;9.15;99.11
66543;BME280;53395;37.360;-122.046;2022-12-01T10:45:29;100640.63;;;9.10;99.17
66543;BME280;53395;37.360;-122.046;2022-12-01T10:48:19;100642.34;;;9.10;99.38
66543;BME280;53395;37.360;-122.046;2022-12-01T10:50:48;100645.88;;;9.07;99.46
66543;BME280;53395;37.360;-122.046;2022-12-01T10:53:30;100645.84;;;9.10;98.96
66543;BME280;53395;37.360;-122.046;2022-12-01T10:56:15;100636.28;;;9.09;99.33
66543;BME280;53395;37.360;-122.046;2022-12-01T10:58:52;100618.09;;;9.06;99.10
66543;BME280;53395;37.360;-122.046;2022-12-01T11:01:23;100624.16;;;9.07;99.17
66543;BME280;53395;37.360;-122.046;2022-12-01T11:06:29;100618.97;;;9.05;98.77
66543;BME280;53395;37.360;-122.046;2022-12-01T11:09:01;100617.28;;;9.01;99.05
66543;BME280;53395;37.360;-122.046;2022-12-01T11:11:31;100621.66;;;8.98;99.27
66543;BME280;53395;37.360;-122.046;2022-12-01T11:14:02;100627.78;;;8.95;99.14
66543;BME280;53395;37.360;-122.046;2022-12-01T11:16:37;100614.81;;;8.92;99.17
66543;BME280;53395;37.360;-122.046;2022-12-01T11:21:46;100617.53;;;8.84;99.69
66543;BME280;53395;37.360;-122.046;2022-12-01T11:26:57;100618.22;;;8.96;100.00
66543;BME280;53395;37.360;-122.046;2022-12-01T11:29:30;100616.31;;;9.07;100.00
66543;BME280;53395;37.360;-122.046;2022-12-01T11:31:58;100618.94;;;9.07;100.00
66543;BME280;53395;37.360;-122.046;2022-12-01T11:34:32;100625.91;;;9.06;100.00
66543;BME280;53395;37.360;-122.046;2022-12-01T11:37:07;100624.19;;;9.05;100.00
66543;BME280;53395;37.360;-122.046;2022-12-01T11:39:37;100622.47;;;9.03;100.00
66543;BME280;53395;37.360;-122.046;2022-12-01T11:44:53;100606.88;;;9.01;100.00
66543;BME280;53395;37.360;-122.046;2022-12-01T11:47:25;100602.56;;;8.99;100.00
66543;BME280;53395;37.360;-122.046;2022-12-01T11:50:00;100602.56;;;8.96;100.00
66543;BME280;53395;37.360;-122.046;2022-12-01T11:52:34;100594.81;;;8.94;100.00
66543;BME280;53395;37.360;-122.046;2022-12-01T11:57:41;100600.81;;;8.98;100.00
66543;BME280;53395;37.360;-122.046;2022-12-01T12:00:15;100596.56;;;8.92;100.00
66543;BME280;53395;37.360;-122.046;2022-12-01T12:11:08;100582.75;;;8.84;100.00
66543;BME280;53395;37.360;-122.046;2022-12-01T12:30:25;100577.41;;;8.95;100.00
66543;BME280;53395;37.360;-122.046;2022-12-01T12:41:20;100566.28;;;8.83;100.00
66543;BME280;53395;37.360;-122.046;2022-12-01T12:52:05;100566.22;;;8.88;100.00
66543;BME280;53395;37.360;-122.046;2022-12-01T12:54:56;100574.75;;;8.98;100.00
66543;BME280;53395;37.360;-122.046;2022-12-01T12:58:57;100556.50;;;8.98;100.00
66543;BME280;53395;37.360;-122.046;2022-12-01T13:01:01;100550.38;;;9.02;100.00
66543;BME280;53395;37.360;-122.046;2022-12-01T13:03:43;100548.66;;;8.99;100.00
66543;BME280;53395;37.360;-122.046;2022-12-01T13:06:34;100543.38;;;9.04;100.00
66543;BME280;53395;37.360;-122.046;2022-12-01T13:09:14;100532.81;;;9.12;100.00
66543;BME280;53395;37.360;-122.046;2022-12-01T13:12:02;100545.00;;;9.13;100.00
66543;BME280;53395;37.360;-122.046;2022-12-01T13:14:31;100537.97;;;9.15;100.00
66543;BME280;53395;37.360;-122.046;2022-12-01T13:17:40;100535.44;;;9.12;100.00
66543;BME280;53395;37.360;-122.046;2022-12-01T13:20:13;100522.50;;;9.05;100.00
66543;BME280;53395;37.360;-122.046;2022-12-01T13:22:40;100522.47;;;9.07;100.00
66543;BME280;53395;37.360;-122.046;2022-12-01T13:25:07;100532.03;;;9.08;100.00
66543;BME280;53395;37.360;-122.046;2022-12-01T13:27:35;100537.25;;;9.06;100.00
66543;BME280;53395;37.360;-122.046;2022-12-01T13:30:03;100548.53;;;9.08;100.00
66543;BME280;53395;37.360;-122.046;2022-12-01T13:34:55;100542.41;;;9.11;100.00
66543;BME280;53395;37.360;-122.046;2022-12-01T13:37:30;100557.22;;;9.09;100.00
66543;BME280;53395;37.360;-122.046;2022-12-01T13:40:08;100556.22;;;9.15;100.00
66543;BME280;53395;37.360;-122.046;2022-12-01T13:42:35;100545.78;;;9.16;100.00
66543;BME280;53395;37.360;-122.046;2022-12-01T13:45:31;100558.88;;;9.13;100.00
66543;BME280;53395;37.360;-122.046;2022-12-01T13:47:59;100560.63;;;9.13;100.00
66543;BME280;53395;37.360;-122.046;2022-12-01T13:56:04;100547.63;;;9.11;100.00
66543;BME280;53395;37.360;-122.046;2022-12-01T14:06:43;100545.00;;;9.11;100.00
66543;BME280;53395;37.360;-122.046;2022-12-01T14:11:56;100533.00;;;9.01;100.00
66543;BME280;53395;37.360;-122.046;2022-12-01T14:14:24;100544.44;;;8.92;100.00
66543;BME280;53395;37.360;-122.046;2022-12-01T14:16:56;100542.81;;;8.85;100.00
66543;BME280;53395;37.360;-122.046;2022-12-01T14:19:38;100546.25;;;8.85;100.00
66543;BME280;53395;37.360;-122.046;2022-12-01T14:25:25;100543.66;;;8.85;100.00
66543;BME280;53395;37.360;-122.046;2022-12-01T14:28:01;100549.66;;;8.92;100.00
66543;BME280;53395;37.360;-122.046;2022-12-01T14:39:19;100541.88;;;8.89;100.00
66543;BME280;53395;37.360;-122.046;2022-12-01T14:41:48;100535.69;;;8.95;100.00
66543;BME280;53395;37.360;-122.046;2022-12-01T14:44:34;100531.22;;;9.03;100.00
66543;BME280;53395;37.360;-122.046;2022-12-01T14:47:12;100544.25;;;9.04;100.00
66543;BME280;53395;37.360;-122.046;2022-12-01T14:49:55;100539.03;;;9.04;100.00
66543;BME280;53395;37.360;-122.046;2022-12-01T14:54:57;100538.31;;;8.95;100.00
66543;BME280;53395;37.360;-122.046;2022-12-01T14:57:32;100526.31;;;8.84;100.00
66543;BME280;53395;37.360;-122.046;2022-12-01T15:00:07;100530.56;;;8.88;100.00
66543;BME280;53395;37.360;-122.046;2022-12-01T15:05:15;100526.06;;;8.98;100.00
66543;BME280;53395;37.360;-122.046;2022-12-01T15:07:45;100519.28;;;8.88;100.00
66543;BME280;53395;37.360;-122.046;2022-12-01T15:10:21;100520.19;;;8.85;100.00
66543;BME280;53395;37.360;-122.046;2022-12-01T15:12:48;100514.91;;;8.90;100.00
66543;BME280;53395;37.360;-122.046;2022-12-01T15:15:18;100507.03;;;8.95;100.00